Time;durP1;ratioP1;P1;durP2;ratioP2;P2;SDS_P1;SDS_P2;PMS_P1;PMS_P2;Temp;Humidity;BMP_temperature;BMP_pressure;BME280_temperature;BME280_humidity;BME280_pressure;Samples;Min_cycle;Max_cycle;Signal;HPM_P1;HPM_P2
2024/02/13 00:05:17;;;;;;;0.00;0.00;;;24.30;47.80;;;;;;5019239;28;20572;-49
2024/02/13 00:07:50;;;;;;;0.00;0.00;;;24.30;47.80;;;;;;5027601;28;20287;-49
2024/02/13 00:10:25;;;;;;;0.00;0.00;;;24.30;47.80;;;;;;5020330;28;20204;-45
2024/02/13 00:13:03;;;;;;;0.00;0.00;;;24.40;47.90;;;;;;5004848;28;20646;-46
2024/02/13 00:15:37;;;;;;;0.00;0.00;;;24.40;47.70;;;;;;5006547;28;20204;-46
2024/02/13 00:18:08;;;;;;;0.00;0.00;;;24.40;47.70;;;;;;5025426;28;20220;-46
2024/02/13 00:20:38;;;;;;;0.00;0.00;;;24.40;47.60;;;;;;5027960;28;20195;-49
2024/02/13 00:23:09;;;;;;;0.00;0.00;;;24.50;47.70;;;;;;5028143;28;20278;-43
2024/02/13 00:25:40;;;;;;;0.00;0.00;;;24.50;47.60;;;;;;5027702;28;20196;-44
2024/02/13 00:28:12;;;;;;;0.00;0.00;;;24.50;48.20;;;;;;5027773;28;20228;-43
2024/02/13 00:30:43;;;;;;;0.00;0.00;;;24.50;47.60;;;;;;5027613;28;20212;-42
2024/02/13 00:33:14;;;;;;;0.00;0.00;;;24.60;47.60;;;;;;5028582;28;20291;-43
2024/02/13 00:35:45;;;;;;;0.00;0.00;;;24.60;47.60;;;;;;5027265;28;20196;-43
2024/02/13 00:38:16;;;;;;;0.00;0.00;;;24.60;47.60;;;;;;5028203;28;20663;-42
2024/02/13 00:40:48;;;;;;;0.00;0.00;;;24.60;47.60;;;;;;5018879;28;20227;-46
2024/02/13 00:43:22;;;;;;;0.00;0.00;;;24.70;47.70;;;;;;5027981;28;20231;-44
2024/02/13 00:45:53;;;;;;;0.00;0.00;;;24.70;47.80;;;;;;5013238;28;20284;-46
2024/02/13 00:48:24;;;;;;;0.00;0.00;;;24.70;47.70;;;;;;4988257;28;20221;-46
2024/02/13 00:50:55;;;;;;;0.00;0.00;;;24.70;47.70;;;;;;4988517;28;20678;-46
2024/02/13 00:53:25;;;;;;;0.00;0.00;;;24.80;47.70;;;;;;4988309;28;20202;-46
2024/02/13 00:55:56;;;;;;;0.00;0.00;;;24.70;47.60;;;;;;5016839;28;20200;-43
2024/02/13 00:58:29;;;;;;;0.00;0.00;;;24.80;47.70;;;;;;4987669;28;20225;-43
2024/02/13 01:01:00;;;;;;;0.00;0.00;;;24.80;47.70;;;;;;4988239;28;20201;-42
2024/02/13 01:03:30;;;;;;;0.00;0.00;;;24.90;47.90;;;;;;4988560;28;20239;-42
2024/02/13 01:06:01;;;;;;;0.00;0.00;;;24.90;47.60;;;;;;4989291;28;20205;-42
2024/02/13 01:08:33;;;;;;;0.00;0.00;;;24.90;47.60;;;;;;5020589;28;20285;-43
2024/02/13 01:11:03;;;;;;;0.00;0.00;;;24.90;47.60;;;;;;5011727;28;20196;-46
2024/02/13 01:13:37;;;;;;;0.00;0.00;;;24.90;47.70;;;;;;5008037;28;20744;-48
2024/02/13 01:16:08;;;;;;;0.00;0.00;;;24.90;47.60;;;;;;5006849;28;20629;-43
2024/02/13 01:18:39;;;;;;;0.00;0.00;;;24.90;47.60;;;;;;5007715;28;20220;-44
2024/02/13 01:21:14;;;;;;;0.00;0.00;;;24.90;47.60;;;;;;5007931;28;20632;-45
2024/02/13 01:23:44;;;;;;;0.00;0.00;;;25.00;47.60;;;;;;5011300;28;20243;-42
2024/02/13 01:26:17;;;;;;;0.00;0.00;;;25.00;47.70;;;;;;5011920;28;20267;-46
2024/02/13 01:29:03;;;;;;;0.00;0.00;;;25.00;47.60;;;;;;5011352;28;20216;-43
2024/02/13 01:31:35;;;;;;;0.00;0.00;;;25.00;47.60;;;;;;5011802;28;20267;-45
2024/02/13 01:34:07;;;;;;;0.00;0.00;;;25.10;47.60;;;;;;5029247;28;20196;-45
2024/02/13 01:36:39;;;;;;;0.00;0.00;;;25.10;47.60;;;;;;5025382;28;20204;-47
2024/02/13 01:39:09;;;;;;;0.00;0.00;;;25.10;47.70;;;;;;5015228;28;20217;-43
2024/02/13 01:41:41;;;;;;;0.00;0.00;;;25.10;47.70;;;;;;5011571;28;20202;-45
2024/02/13 01:44:14;;;;;;;0.00;0.00;;;25.10;47.60;;;;;;4994862;28;20284;-47
2024/02/13 01:46:45;;;;;;;0.00;0.00;;;25.10;47.60;;;;;;4995326;28;20201;-43
2024/02/13 01:49:16;;;;;;;0.00;0.00;;;25.10;47.60;;;;;;4995449;28;20217;-45
2024/02/13 01:51:47;;;;;;;0.00;0.00;;;25.10;47.50;;;;;;4995284;28;20209;-44
2024/02/13 01:54:18;;;;;;;0.00;0.00;;;25.20;47.50;;;;;;4995458;28;20202;-45
2024/02/13 01:56:49;;;;;;;0.00;0.00;;;25.20;47.60;;;;;;4995282;28;20206;-45
2024/02/13 01:59:23;;;;;;;0.00;0.00;;;25.20;47.50;;;;;;4994975;28;20221;-42
2024/02/13 02:01:55;;;;;;;0.00;0.00;;;25.20;47.60;;;;;;4995222;28;20209;-44
2024/02/13 02:04:30;;;;;;;0.00;0.00;;;25.20;47.50;;;;;;4995343;28;20229;-42
2024/02/13 02:07:03;;;;;;;0.00;0.00;;;25.20;47.50;;;;;;4996897;28;20244;-42
2024/02/13 02:09:34;;;;;;;0.00;0.00;;;25.30;47.60;;;;;;4993449;28;20659;-42
2024/02/13 02:12:05;;;;;;;0.00;0.00;;;25.30;47.50;;;;;;5014641;28;20197;-46
2024/02/13 02:14:38;;;;;;;0.00;0.00;;;25.30;47.50;;;;;;5014405;28;20236;-49
2024/02/13 02:17:12;;;;;;;0.00;0.00;;;25.30;47.50;;;;;;5006468;28;20697;-44
2024/02/13 02:19:43;;;;;;;0.03;0.03;;;25.30;47.40;;;;;;5010931;28;20232;-44
2024/02/13 02:22:14;;;;;;;0.00;0.00;;;25.30;47.40;;;;;;5010537;28;20192;-45
2024/02/13 02:24:45;;;;;;;0.00;0.00;;;25.40;47.40;;;;;;5010067;28;20681;-45
2024/02/13 02:27:18;;;;;;;0.00;0.00;;;25.40;47.40;;;;;;5010877;28;20208;-45
2024/02/13 02:29:49;;;;;;;0.00;0.00;;;25.40;47.40;;;;;;5016900;28;20314;-42
2024/02/13 02:32:20;;;;;;;0.00;0.00;;;25.40;47.30;;;;;;5030142;28;20719;-44
2024/02/13 02:34:51;;;;;;;0.00;0.00;;;25.50;47.30;;;;;;5015249;28;20196;-46
2024/02/13 02:37:22;;;;;;;0.00;0.00;;;25.50;47.30;;;;;;5009523;28;20304;-49
2024/02/13 02:39:53;;;;;;;0.00;0.00;;;25.50;47.20;;;;;;5009373;28;20231;-43
2024/02/13 02:42:25;;;;;;;0.00;0.00;;;25.50;47.30;;;;;;5009546;28;20204;-46
2024/02/13 02:44:56;;;;;;;0.00;0.00;;;25.50;47.30;;;;;;5025309;28;20638;-46
2024/02/13 02:47:27;;;;;;;0.00;0.00;;;25.50;47.20;;;;;;5030362;28;20254;-42
2024/02/13 02:49:57;;;;;;;0.00;0.00;;;25.50;47.30;;;;;;5020956;28;20692;-43
2024/02/13 02:52:28;;;;;;;0.00;0.00;;;25.60;47.30;;;;;;5010085;28;20201;-45
2024/02/13 02:54:59;;;;;;;0.00;0.00;;;25.60;47.30;;;;;;5006445;28;20486;-42
2024/02/13 02:57:31;;;;;;;0.00;0.00;;;25.60;47.20;;;;;;5026607;28;20204;-44
2024/02/13 03:00:03;;;;;;;0.00;0.00;;;25.60;47.20;;;;;;5009595;28;20228;-48
2024/02/13 03:02:35;;;;;;;0.00;0.00;;;25.60;47.10;;;;;;5008875;28;20207;-42
2024/02/13 03:05:06;;;;;;;0.00;0.00;;;25.70;47.20;;;;;;5009802;28;20232;-48
2024/02/13 03:07:36;;;;;;;0.00;0.00;;;25.70;47.20;;;;;;5011491;28;20784;-44
2024/02/13 03:10:10;;;;;;;0.00;0.00;;;25.70;47.10;;;;;;5025059;28;20205;-43
2024/02/13 03:12:43;;;;;;;0.00;0.00;;;25.70;47.10;;;;;;5009838;28;20250;-45
2024/02/13 03:15:15;;;;;;;0.00;0.00;;;25.70;47.10;;;;;;5008859;28;20207;-44
2024/02/13 03:17:47;;;;;;;0.00;0.00;;;25.70;47.10;;;;;;5009841;28;20661;-48
2024/02/13 03:20:18;;;;;;;0.00;0.00;;;25.80;47.10;;;;;;5008554;28;20315;-43
2024/02/13 03:22:49;;;;;;;0.00;0.00;;;25.80;47.10;;;;;;5023194;28;20197;-43
2024/02/13 03:25:29;;;;;;;0.00;0.00;;;25.80;47.10;;;;;;4988716;28;20233;-42
2024/02/13 03:28:02;;;;;;;0.00;0.00;;;25.80;47.00;;;;;;4989688;28;20515;-46
2024/02/13 03:30:33;;;;;;;0.00;0.00;;;25.90;47.00;;;;;;4989238;28;20197;-43
2024/02/13 03:33:03;;;;;;;0.00;0.00;;;25.90;47.00;;;;;;4989844;28;20212;-42
2024/02/13 03:35:35;;;;;;;0.00;0.00;;;25.90;47.00;;;;;;4999863;28;20195;-43
2024/02/13 03:38:06;;;;;;;0.00;0.00;;;25.90;47.00;;;;;;5029674;28;20696;-42
2024/02/13 03:40:38;;;;;;;0.00;0.00;;;25.90;46.90;;;;;;5019975;28;20240;-42
2024/02/13 03:43:11;;;;;;;0.00;0.00;;;25.90;47.00;;;;;;5007547;28;20200;-46
2024/02/13 03:45:42;;;;;;;0.00;0.00;;;26.00;47.00;;;;;;5008061;28;20534;-42
2024/02/13 03:48:13;;;;;;;0.00;0.00;;;26.00;46.90;;;;;;5008863;28;20275;-42
2024/02/13 03:50:44;;;;;;;0.00;0.00;;;26.00;46.90;;;;;;5014557;28;20255;-43
2024/02/13 03:53:15;;;;;;;0.00;0.00;;;26.10;46.90;;;;;;5008810;28;20209;-42
2024/02/13 03:55:45;;;;;;;0.00;0.00;;;26.10;46.80;;;;;;5009137;28;20205;-44
2024/02/13 03:58:18;;;;;;;0.00;0.00;;;26.10;46.70;;;;;;5005323;28;20216;-46
2024/02/13 04:00:49;;;;;;;0.00;0.00;;;26.10;46.70;;;;;;5007985;28;20697;-49
2024/02/13 04:03:19;;;;;;;0.00;0.00;;;26.20;46.80;;;;;;5020048;28;20273;-45
2024/02/13 04:05:51;;;;;;;0.00;0.00;;;26.20;46.70;;;;;;5028993;28;20692;-43
2024/02/13 04:08:22;;;;;;;0.00;0.00;;;26.30;46.70;;;;;;5027960;28;20224;-42
2024/02/13 04:10:52;;;;;;;0.00;0.00;;;26.30;46.70;;;;;;5014431;28;20207;-42
2024/02/13 04:13:27;;;;;;;0.00;0.00;;;26.30;46.60;;;;;;5008653;28;20360;-42
2024/02/13 04:15:57;;;;;;;0.00;0.00;;;26.30;46.60;;;;;;5016946;28;20210;-42
2024/02/13 04:18:28;;;;;;;0.00;0.00;;;26.30;46.60;;;;;;5028459;28;20356;-43
2024/02/13 04:20:59;;;;;;;0.00;0.00;;;26.40;46.60;;;;;;5027823;28;20708;-43
2024/02/13 04:23:29;;;;;;;0.00;0.00;;;26.40;46.50;;;;;;5027018;28;20575;-42
2024/02/13 04:26:00;;;;;;;0.00;0.00;;;26.40;46.50;;;;;;5027115;28;20224;-43
2024/02/13 04:28:35;;;;;;;0.00;0.00;;;26.40;46.50;;;;;;5027192;28;20227;-47
2024/02/13 04:31:06;;;;;;;0.00;0.00;;;26.50;46.50;;;;;;5028263;28;20206;-45
2024/02/13 04:33:36;;;;;;;0.00;0.00;;;26.50;46.40;;;;;;5027649;28;20200;-42
2024/02/13 04:36:08;;;;;;;0.00;0.00;;;26.50;46.40;;;;;;5028038;28;20200;-42
2024/02/13 04:38:38;;;;;;;0.00;0.00;;;26.50;46.40;;;;;;5010760;28;20216;-43
2024/02/13 04:41:09;;;;;;;0.00;0.00;;;26.50;46.30;;;;;;5010412;28;20205;-48
2024/02/13 04:43:43;;;;;;;0.00;0.00;;;26.60;46.40;;;;;;5027335;28;20291;-42
2024/02/13 04:46:13;;;;;;;0.00;0.00;;;26.60;46.30;;;;;;5027732;28;20338;-43
2024/02/13 04:48:44;;;;;;;0.00;0.00;;;26.60;46.30;;;;;;5027232;28;20743;-43
2024/02/13 04:51:15;;;;;;;0.00;0.00;;;26.60;46.30;;;;;;5028179;28;20200;-43
2024/02/13 04:53:46;;;;;;;0.00;0.00;;;26.70;46.30;;;;;;5028262;28;20206;-43
2024/02/13 04:56:17;;;;;;;0.00;0.00;;;26.70;46.20;;;;;;5018057;28;20208;-42
2024/02/13 04:58:55;;;;;;;0.00;0.00;;;26.70;46.20;;;;;;5004613;28;20229;-42
2024/02/13 05:01:26;;;;;;;0.00;0.00;;;26.80;46.20;;;;;;5007402;28;20208;-42
2024/02/13 05:09:30;;;;;;;0.00;0.00;;;26.90;46.20;;;;;;5002861;28;20229;-45
2024/02/13 05:12:02;;;;;;;0.00;0.00;;;26.90;46.10;;;;;;4988179;28;20197;-47
2024/02/13 05:14:35;;;;;;;0.00;0.00;;;27.00;46.20;;;;;;4989294;28;20485;-46
2024/02/13 05:17:05;;;;;;;0.00;0.00;;;27.00;46.20;;;;;;4988527;28;20202;-42
2024/02/13 05:19:38;;;;;;;0.00;0.00;;;27.00;46.10;;;;;;4987880;28;20224;-49
2024/02/13 05:22:09;;;;;;;0.00;0.00;;;27.00;46.00;;;;;;5005064;28;20208;-42
2024/02/13 05:24:40;;;;;;;0.00;0.00;;;27.00;45.90;;;;;;5024619;28;20273;-46
2024/02/13 05:27:11;;;;;;;0.00;0.00;;;27.10;46.00;;;;;;5026293;28;20971;-42
2024/02/13 05:29:44;;;;;;;0.00;0.00;;;27.10;46.00;;;;;;5027363;28;20226;-44
2024/02/13 05:32:16;;;;;;;0.00;0.00;;;27.10;45.90;;;;;;5015171;28;20193;-46
2024/02/13 05:34:46;;;;;;;0.00;0.00;;;27.10;45.90;;;;;;5007156;28;20680;-46
2024/02/13 05:37:20;;;;;;;0.00;0.00;;;27.10;45.80;;;;;;5010366;28;20242;-44
2024/02/13 05:39:54;;;;;;;0.00;0.00;;;27.20;45.90;;;;;;5024887;28;20219;-48
2024/02/13 05:42:24;;;;;;;0.00;0.00;;;27.20;45.90;;;;;;5008398;28;20197;-44
2024/02/13 05:44:57;;;;;;;0.00;0.00;;;27.20;45.90;;;;;;5006984;28;20444;-42
2024/02/13 05:47:33;;;;;;;0.00;0.00;;;27.20;45.80;;;;;;5008137;28;20232;-48
2024/02/13 05:50:06;;;;;;;0.00;0.00;;;27.30;45.90;;;;;;5005247;28;20201;-45
2024/02/13 05:52:37;;;;;;;0.00;0.00;;;27.30;45.80;;;;;;5026236;28;20210;-45
2024/02/13 05:55:08;;;;;;;0.00;0.00;;;27.30;45.80;;;;;;5027873;28;20204;-42
2024/02/13 05:57:41;;;;;;;0.00;0.00;;;27.30;45.80;;;;;;5026829;28;20207;-43
2024/02/13 06:00:16;;;;;;;0.00;0.00;;;27.40;45.80;;;;;;5020424;28;20300;-43
2024/02/13 06:02:47;;;;;;;0.00;0.00;;;27.40;45.70;;;;;;5006137;28;20262;-43
2024/02/13 06:05:17;;;;;;;0.00;0.00;;;27.40;45.70;;;;;;5009128;28;20241;-47
2024/02/13 06:07:48;;;;;;;0.00;0.00;;;27.40;45.70;;;;;;5008130;28;20707;-45
2024/02/13 06:10:19;;;;;;;0.00;0.00;;;27.40;45.70;;;;;;5011117;28;20200;-48
2024/02/13 06:12:50;;;;;;;0.00;0.00;;;27.50;45.70;;;;;;5010561;28;20220;-44
2024/02/13 06:15:22;;;;;;;0.00;0.00;;;27.50;45.60;;;;;;5010356;28;20197;-46
2024/02/13 06:17:54;;;;;;;0.00;0.00;;;27.50;45.60;;;;;;5022684;28;20200;-51
2024/02/13 06:20:25;;;;;;;0.00;0.00;;;27.50;45.60;;;;;;5029971;28;20204;-44
2024/02/13 06:22:55;;;;;;;0.00;0.00;;;27.50;45.60;;;;;;5029821;28;20254;-46
2024/02/13 06:25:26;;;;;;;0.00;0.00;;;27.50;45.60;;;;;;5030242;28;20232;-42
2024/02/13 06:27:57;;;;;;;0.00;0.00;;;27.50;46.30;;;;;;5030616;28;20703;-46
2024/02/13 06:30:31;;;;;;;0.00;0.00;;;27.50;45.60;;;;;;5028786;28;20196;-49
2024/02/13 06:33:02;;;;;;;0.00;0.00;;;27.50;45.60;;;;;;5030111;28;20287;-45
2024/02/13 06:35:33;;;;;;;0.00;0.00;;;27.50;45.60;;;;;;5030062;28;20613;-43
2024/02/13 06:38:04;;;;;;;0.00;0.00;;;27.50;45.70;;;;;;5021080;28;20221;-43
2024/02/13 06:40:34;;;;;;;0.00;0.00;;;27.50;45.70;;;;;;4998737;28;20208;-42
2024/02/13 06:43:05;;;;;;;0.00;0.00;;;27.50;45.70;;;;;;5009720;28;20205;-47
2024/02/13 06:45:38;;;;;;;0.00;0.00;;;27.50;46.30;;;;;;4990403;28;20225;-43
2024/02/13 06:48:09;;;;;;;0.00;0.00;;;27.50;45.60;;;;;;4990185;28;20766;-42
2024/02/13 06:50:41;;;;;;;0.00;0.00;;;27.50;45.70;;;;;;4990957;28;20213;-46
2024/02/13 06:53:11;;;;;;;0.00;0.00;;;27.50;45.60;;;;;;4989976;28;20197;-42
2024/02/13 06:55:42;;;;;;;0.00;0.00;;;27.50;45.60;;;;;;4989888;28;20376;-48
2024/02/13 06:58:16;;;;;;;0.00;0.00;;;27.50;45.50;;;;;;5009276;28;20689;-46
2024/02/13 07:00:49;;;;;;;0.00;0.00;;;27.50;45.50;;;;;;5009719;28;20248;-43
2024/02/13 07:03:20;;;;;;;0.00;0.00;;;27.50;45.40;;;;;;5007263;28;20332;-43
2024/02/13 07:05:50;;;;;;;0.00;0.00;;;27.50;45.30;;;;;;5009799;28;20228;-44
2024/02/13 07:08:21;;;;;;;0.00;0.00;;;27.50;45.30;;;;;;5012073;28;20220;-43
2024/02/13 07:10:52;;;;;;;0.00;0.00;;;27.50;45.20;;;;;;5018605;28;20204;-45
2024/02/13 07:13:22;;;;;;;0.00;0.00;;;27.50;45.30;;;;;;5010330;28;20566;-45
2024/02/13 07:15:55;;;;;;;0.00;0.00;;;27.50;45.20;;;;;;5008518;28;20201;-47
2024/02/13 07:18:26;;;;;;;0.00;0.00;;;27.50;45.30;;;;;;5009398;28;20694;-45
2024/02/13 07:20:56;;;;;;;0.00;0.00;;;27.40;45.10;;;;;;5009704;28;20299;-42
2024/02/13 07:23:27;;;;;;;0.00;0.00;;;27.40;45.20;;;;;;5028097;28;20285;-45
2024/02/13 07:25:58;;;;;;;0.00;0.00;;;27.40;45.20;;;;;;5012670;28;20271;-45
2024/02/13 07:28:29;;;;;;;0.00;0.00;;;27.40;45.20;;;;;;5008842;28;20689;-47
2024/02/13 07:31:03;;;;;;;0.00;0.00;;;27.40;45.20;;;;;;5009710;28;20308;-44
2024/02/13 07:33:34;;;;;;;0.00;0.00;;;27.40;45.20;;;;;;5009080;28;20208;-47
2024/02/13 07:36:05;;;;;;;0.00;0.00;;;27.40;45.10;;;;;;5021719;28;20204;-46
2024/02/13 07:38:36;;;;;;;0.00;0.00;;;27.40;45.10;;;;;;5028060;28;20235;-46
2024/02/13 07:41:09;;;;;;;0.00;0.00;;;27.30;45.10;;;;;;5016647;28;20976;-46
2024/02/13 07:43:40;;;;;;;0.00;0.00;;;27.30;45.20;;;;;;5012880;28;20553;-45
2024/02/13 07:46:14;;;;;;;0.00;0.00;;;27.30;45.20;;;;;;5012274;28;20225;-46
2024/02/13 07:48:46;;;;;;;0.00;0.00;;;27.30;45.20;;;;;;5012262;28;20213;-44
2024/02/13 07:51:18;;;;;;;0.00;0.00;;;27.20;45.20;;;;;;5006072;28;20225;-42
2024/02/13 07:53:48;;;;;;;0.00;0.00;;;27.20;45.30;;;;;;4994889;28;20194;-42
2024/02/13 07:56:24;;;;;;;0.00;0.00;;;27.20;45.30;;;;;;4993083;28;20672;-42
2024/02/13 07:58:57;;;;;;;0.00;0.00;;;27.10;45.20;;;;;;4992737;28;20217;-45
2024/02/13 08:01:30;;;;;;;0.00;0.00;;;27.10;45.20;;;;;;4992639;28;20237;-46
2024/02/13 08:04:00;;;;;;;0.00;0.00;;;27.10;45.30;;;;;;4992750;28;20197;-45
2024/02/13 08:06:31;;;;;;;0.00;0.00;;;27.10;45.30;;;;;;4993036;28;20229;-44
2024/02/13 08:09:03;;;;;;;0.00;0.00;;;27.00;45.20;;;;;;4993042;28;20221;-46
2024/02/13 08:11:33;;;;;;;0.00;0.00;;;27.00;45.20;;;;;;5009146;28;20235;-43
2024/02/13 08:14:04;;;;;;;0.00;0.00;;;27.00;45.20;;;;;;5012129;28;20649;-50
2024/02/13 08:16:37;;;;;;;0.00;0.00;;;27.00;45.20;;;;;;5011542;28;20207;-46
2024/02/13 08:19:07;;;;;;;0.00;0.00;;;27.00;45.20;;;;;;5011453;28;20227;-49
2024/02/13 08:21:38;;;;;;;0.00;0.00;;;27.00;45.20;;;;;;5011022;28;20200;-45
2024/02/13 08:24:10;;;;;;;0.00;0.00;;;27.00;45.20;;;;;;5012030;28;20287;-48
2024/02/13 08:26:41;;;;;;;0.00;0.00;;;27.00;45.20;;;;;;5011805;28;20232;-47
2024/02/13 08:29:11;;;;;;;0.00;0.00;;;27.00;45.20;;;;;;5011474;28;20227;-44
2024/02/13 08:31:44;;;;;;;0.00;0.00;;;27.00;45.20;;;;;;5011610;28;20681;-46
2024/02/13 08:34:15;;;;;;;0.00;0.00;;;26.90;45.10;;;;;;5012122;28;20236;-49
2024/02/13 08:36:45;;;;;;;0.00;0.00;;;26.90;45.10;;;;;;5011426;28;20204;-42
2024/02/13 08:39:16;;;;;;;0.00;0.00;;;26.90;45.40;;;;;;5011963;28;20249;-47
2024/02/13 08:41:47;;;;;;;0.00;0.00;;;26.80;45.10;;;;;;5011211;28;20205;-44
2024/02/13 08:44:19;;;;;;;0.00;0.00;;;26.80;45.00;;;;;;5011951;28;20192;-45
2024/02/13 08:46:51;;;;;;;0.00;0.00;;;26.80;45.00;;;;;;5011747;28;20229;-46
2024/02/13 08:49:22;;;;;;;0.00;0.00;;;26.80;45.10;;;;;;4999084;28;20222;-43
2024/02/13 08:51:53;;;;;;;0.00;0.00;;;26.70;45.10;;;;;;5000030;28;20201;-41
2024/02/13 08:54:23;;;;;;;0.00;0.00;;;26.70;45.10;;;;;;5011306;28;20197;-45
2024/02/13 08:56:54;;;;;;;0.00;0.00;;;26.70;45.70;;;;;;5011719;28;20267;-44
2024/02/13 08:59:25;;;;;;;0.00;0.00;;;26.60;45.00;;;;;;5011637;28;20582;-50
2024/02/13 09:01:57;;;;;;;0.00;0.00;;;26.60;45.00;;;;;;5010866;28;20257;-46
2024/02/13 09:04:28;;;;;;;0.00;0.00;;;26.60;45.00;;;;;;5011063;28;20219;-49
2024/02/13 09:06:59;;;;;;;0.00;0.00;;;26.60;45.10;;;;;;5005831;28;20225;-47
2024/02/13 09:09:30;;;;;;;0.00;0.00;;;26.60;45.10;;;;;;5004473;28;20224;-45
2024/02/13 09:12:01;;;;;;;0.00;0.00;;;26.50;45.00;;;;;;5008682;28;20746;-43
2024/02/13 09:14:33;;;;;;;0.00;0.00;;;26.50;45.00;;;;;;4993203;28;20197;-47
2024/02/13 09:17:08;;;;;;;0.00;0.00;;;26.50;45.00;;;;;;4987497;28;20264;-42
2024/02/13 09:19:42;;;;;;;0.00;0.00;;;26.50;45.00;;;;;;4995355;28;20212;-42
2024/02/13 09:22:13;;;;;;;0.00;0.00;;;26.50;45.00;;;;;;5006595;28;20196;-49
2024/02/13 09:24:50;;;;;;;0.00;0.00;;;26.40;44.90;;;;;;5006698;28;20250;-47
2024/02/13 09:27:20;;;;;;;0.00;0.00;;;26.40;44.90;;;;;;4987545;28;20229;-48
2024/02/13 09:29:52;;;;;;;0.00;0.00;;;26.40;44.90;;;;;;4987564;28;20229;-47
2024/02/13 09:32:25;;;;;;;0.00;0.00;;;26.30;44.90;;;;;;4986801;28;20208;-44
2024/02/13 09:34:56;;;;;;;0.00;0.00;;;26.30;44.90;;;;;;5017963;28;20293;-47
2024/02/13 09:37:26;;;;;;;0.00;0.00;;;26.30;44.90;;;;;;5026952;28;20212;-51
2024/02/13 09:39:57;;;;;;;0.00;0.00;;;26.30;44.90;;;;;;5024185;28;20221;-48
2024/02/13 09:42:28;;;;;;;0.00;0.00;;;26.20;44.80;;;;;;5007695;28;20676;-43
2024/02/13 09:44:59;;;;;;;0.00;0.00;;;26.20;44.80;;;;;;5011473;28;20612;-50
2024/02/13 09:47:33;;;;;;;0.00;0.00;;;26.20;44.90;;;;;;5029449;28;20722;-45
2024/02/13 09:50:05;;;;;;;0.00;0.00;;;26.20;44.90;;;;;;5030489;28;20216;-42
2024/02/13 09:52:38;;;;;;;0.00;0.00;;;26.20;44.90;;;;;;5030173;28;20199;-50
2024/02/13 09:55:10;;;;;;;0.00;0.00;;;26.20;44.90;;;;;;5030130;28;20200;-50
2024/02/13 09:57:43;;;;;;;0.00;0.00;;;26.10;44.90;;;;;;5028096;28;20274;-47
2024/02/13 10:00:16;;;;;;;0.00;0.00;;;26.10;44.90;;;;;;5008435;28;20211;-46
2024/02/13 10:02:49;;;;;;;0.00;0.00;;;26.10;44.90;;;;;;4999088;28;20212;-49
2024/02/13 10:05:20;;;;;;;0.00;0.00;;;26.10;44.90;;;;;;4990204;28;20208;-46
2024/02/13 10:07:51;;;;;;;0.00;0.00;;;26.00;44.80;;;;;;4989846;28;20225;-41
2024/02/13 10:10:22;;;;;;;0.00;0.00;;;26.00;44.80;;;;;;4997370;28;20200;-42
2024/02/13 10:12:54;;;;;;;0.00;0.00;;;26.00;44.80;;;;;;5009100;28;20204;-47
2024/02/13 10:15:24;;;;;;;0.00;0.00;;;26.00;44.80;;;;;;5030200;28;20200;-44
2024/02/13 10:17:58;;;;;;;0.00;0.00;;;26.00;44.80;;;;;;5029245;28;20192;-47
2024/02/13 10:20:30;;;;;;;0.00;0.00;;;25.90;44.70;;;;;;5030656;28;20204;-47
2024/02/13 10:23:01;;;;;;;0.00;0.00;;;25.90;44.70;;;;;;5030529;28;20210;-48
2024/02/13 10:25:33;;;;;;;0.00;0.00;;;25.90;44.80;;;;;;5030912;28;20199;-46
2024/02/13 10:28:05;;;;;;;0.00;0.00;;;25.90;44.80;;;;;;5030032;28;20680;-47
2024/02/13 10:30:37;;;;;;;0.00;0.00;;;25.80;44.70;;;;;;5030265;28;20200;-48
2024/02/13 10:33:10;;;;;;;0.00;0.00;;;25.80;44.70;;;;;;5029932;28;20224;-49
2024/02/13 10:35:41;;;;;;;0.00;0.00;;;25.80;44.70;;;;;;5030125;28;20232;-46
2024/02/13 10:38:20;;;;;;;0.00;0.00;;;25.70;44.70;;;;;;5030327;28;20270;-45
2024/02/13 10:40:53;;;;;;;0.00;0.00;;;25.70;44.70;;;;;;5019101;28;20207;-48
2024/02/13 10:43:27;;;;;;;0.00;0.00;;;25.70;44.70;;;;;;5010022;28;20201;-48
2024/02/13 10:46:01;;;;;;;0.00;0.00;;;25.60;44.70;;;;;;5009890;28;20231;-45
2024/02/13 10:48:40;;;;;;;0.00;0.00;;;25.60;44.70;;;;;;5009672;28;20224;-49
2024/02/13 10:51:13;;;;;;;0.00;0.00;;;25.60;44.70;;;;;;5009809;28;20201;-47
2024/02/13 10:53:44;;;;;;;0.00;0.00;;;25.60;44.70;;;;;;5013560;28;20204;-48
2024/02/13 10:56:15;;;;;;;0.00;0.00;;;25.60;44.70;;;;;;5016182;28;20544;-47
2024/02/13 10:58:48;;;;;;;0.00;0.00;;;25.50;44.60;;;;;;5009644;28;20225;-49
2024/02/13 11:01:21;;;;;;;0.00;0.00;;;25.50;44.70;;;;;;5009499;28;20688;-47
2024/02/13 11:03:57;;;;;;;0.00;0.00;;;25.50;44.60;;;;;;4990122;28;20208;-44
2024/02/13 11:06:28;;;;;;;0.00;0.00;;;25.50;44.70;;;;;;4992994;28;20632;-45
2024/02/13 11:08:59;;;;;;;0.00;0.00;;;25.40;44.60;;;;;;5014104;28;20216;-48
2024/02/13 11:11:30;;;;;;;0.00;0.00;;;25.40;44.70;;;;;;5011038;28;20228;-46
2024/02/13 11:14:01;;;;;;;0.00;0.00;;;25.40;44.70;;;;;;5010349;28;20228;-46
2024/02/13 11:16:37;;;;;;;0.00;0.00;;;25.30;44.60;;;;;;5013607;28;20205;-48
2024/02/13 11:19:14;;;;;;;0.00;0.00;;;25.30;44.60;;;;;;5009406;28;20696;-45
2024/02/13 11:21:44;;;;;;;0.00;0.00;;;25.30;44.70;;;;;;5002861;28;20197;-43
2024/02/13 11:24:23;;;;;;;0.00;0.00;;;25.30;44.70;;;;;;5003156;28;20610;-43
2024/02/13 11:26:55;;;;;;;0.00;0.00;;;25.20;44.60;;;;;;5003841;28;20221;-47
2024/02/13 11:29:29;;;;;;;0.00;0.00;;;25.20;44.70;;;;;;5002558;28;20219;-47
2024/02/13 11:32:00;;;;;;;0.00;0.00;;;25.20;44.70;;;;;;5001343;28;20197;-44
2024/02/13 11:34:48;;;;;;;0.00;0.00;;;25.10;44.70;;;;;;5002035;28;20195;-43
2024/02/13 11:37:27;;;;;;;0.00;0.00;;;25.10;44.70;;;;;;5003570;28;20185;-47
2024/02/13 11:39:59;;;;;;;0.00;0.00;;;25.10;44.70;;;;;;5001192;28;20213;-47
2024/02/13 11:42:35;;;;;;;0.00;0.00;;;25.10;44.70;;;;;;5002553;28;20193;-43
2024/02/13 11:45:06;;;;;;;0.00;0.00;;;25.10;44.70;;;;;;5002548;28;20204;-46
2024/02/13 11:47:36;;;;;;;0.00;0.00;;;25.10;44.70;;;;;;5001845;28;20225;-43
2024/02/13 11:50:10;;;;;;;0.00;0.00;;;25.00;44.70;;;;;;5002387;28;20193;-44
2024/02/13 11:52:42;;;;;;;0.00;0.00;;;25.00;44.70;;;;;;5000853;28;20197;-43
2024/02/13 11:55:14;;;;;;;0.00;0.00;;;25.00;44.70;;;;;;5004757;28;20594;-43
2024/02/13 11:57:46;;;;;;;0.00;0.00;;;24.90;44.70;;;;;;5000364;28;20196;-48
2024/02/13 12:00:21;;;;;;;0.00;0.00;;;24.90;44.70;;;;;;5002989;28;20189;-47
2024/02/13 12:02:54;;;;;;;0.00;0.00;;;24.90;44.70;;;;;;5002132;28;20284;-46
2024/02/13 12:05:28;;;;;;;0.00;0.00;;;24.90;44.80;;;;;;5000803;28;20192;-44
2024/02/13 12:08:00;;;;;;;0.00;0.00;;;24.90;44.70;;;;;;4999767;28;20217;-43
2024/02/13 12:10:31;;;;;;;0.00;0.00;;;24.90;44.80;;;;;;5004059;28;20201;-47
2024/02/13 12:13:02;;;;;;;0.00;0.00;;;24.80;44.80;;;;;;5001889;28;20194;-43
2024/02/13 12:15:33;;;;;;;0.00;0.00;;;24.80;44.80;;;;;;5001229;28;20193;-46
2024/02/13 12:18:11;;;;;;;0.00;0.00;;;24.80;44.80;;;;;;5000397;28;20223;-42
2024/02/13 12:20:49;;;;;;;0.00;0.00;;;24.70;44.80;;;;;;5000524;28;20271;-44
2024/02/13 12:23:20;;;;;;;0.00;0.00;;;24.70;44.80;;;;;;5000247;28;20279;-42
2024/02/13 12:26:02;;;;;;;0.00;0.00;;;24.70;44.80;;;;;;5001082;28;20193;-44
2024/02/13 12:28:33;;;;;;;0.00;0.00;;;24.70;44.80;;;;;;5002094;28;20271;-45
2024/02/13 12:31:05;;;;;;;0.00;0.00;;;24.60;44.80;;;;;;5001011;28;20197;-47
2024/02/13 12:33:36;;;;;;;0.00;0.00;;;24.60;44.80;;;;;;5001010;28;20715;-45
2024/02/13 12:36:18;;;;;;;0.00;0.00;;;24.60;44.80;;;;;;5000667;28;20190;-46
2024/02/13 12:38:50;;;;;;;0.00;0.00;;;24.60;44.80;;;;;;5001022;28;20217;-47
2024/02/13 12:41:21;;;;;;;0.00;0.00;;;24.60;44.90;;;;;;5000564;28;20263;-45
2024/02/13 12:43:52;;;;;;;0.00;0.00;;;24.60;44.90;;;;;;5002056;28;20193;-43
2024/02/13 12:46:23;;;;;;;0.00;0.00;;;24.50;44.80;;;;;;5002622;28;20188;-45
2024/02/13 12:48:56;;;;;;;0.00;0.00;;;24.50;44.80;;;;;;5001550;28;20276;-46
2024/02/13 12:51:31;;;;;;;0.00;0.00;;;24.50;44.80;;;;;;5000340;28;20642;-43
2024/02/13 12:54:04;;;;;;;0.00;0.00;;;24.50;44.90;;;;;;5002607;28;20195;-42
2024/02/13 12:56:37;;;;;;;0.00;0.00;;;24.40;44.90;;;;;;5002451;28;20217;-42
2024/02/13 12:59:08;;;;;;;0.00;0.00;;;24.40;44.80;;;;;;5000922;28;20213;-42
2024/02/13 13:01:44;;;;;;;0.00;0.00;;;24.40;44.90;;;;;;5000143;28;20723;-44
2024/02/13 13:04:15;;;;;;;0.00;0.00;;;24.40;44.90;;;;;;4999997;28;20259;-43
2024/02/13 13:06:50;;;;;;;0.00;0.00;;;24.30;45.00;;;;;;4999362;28;20679;-45
2024/02/13 13:09:21;;;;;;;0.03;0.03;;;24.30;45.00;;;;;;5001119;28;20220;-47
2024/02/13 13:11:52;;;;;;;0.00;0.00;;;24.30;45.10;;;;;;5002197;28;20193;-46
2024/02/13 13:14:23;;;;;;;0.00;0.00;;;24.30;45.10;;;;;;5001616;28;20190;-43
2024/02/13 13:16:54;;;;;;;0.00;0.00;;;24.20;45.10;;;;;;5001404;28;20203;-43
2024/02/13 13:19:26;;;;;;;0.00;0.00;;;24.20;45.10;;;;;;5004810;28;20266;-46
2024/02/13 13:21:59;;;;;;;0.00;0.00;;;24.20;45.80;;;;;;5004684;28;20232;-42